Time;durP1;ratioP1;P1;durP2;ratioP2;P2;SDS_P1;SDS_P2;PMS_P1;PMS_P2;Temp;Humidity;BMP_temperature;BMP_pressure;BME280_temperature;BME280_humidity;BME280_pressure;Samples;Min_cycle;Max_cycle;Signal;HPM_P1;HPM_P2
2023/04/11 00:00:25;;;;;;;1.75;1.00;;;11.90;99.90;;;12.01;100.00;100469.09;5121521;28;20039;-80
2023/04/11 00:02:58;;;;;;;1.48;0.93;;;11.90;99.90;;;11.99;100.00;100464.66;5122048;28;20047;-79
2023/04/11 00:05:31;;;;;;;0.75;0.73;;;11.90;99.90;;;11.95;100.00;100453.25;5117950;28;20051;-79
2023/04/11 00:08:03;;;;;;;0.60;0.45;;;11.80;99.90;;;11.95;100.00;100453.25;5123673;28;20449;-79
2023/04/11 00:10:35;;;;;;;1.30;0.80;;;11.80;99.90;;;11.94;100.00;100461.94;5123520;28;20047;-79
2023/04/11 00:13:09;;;;;;;1.08;0.60;;;11.80;99.90;;;11.97;100.00;100476.81;5125615;28;20122;-79
2023/04/11 00:15:42;;;;;;;1.30;0.68;;;11.80;99.90;;;11.97;100.00;100472.47;5125764;28;20072;-79
2023/04/11 00:18:14;;;;;;;1.35;0.73;;;11.80;99.90;;;11.98;100.00;100466.38;5121950;28;20888;-79
2023/04/11 00:20:46;;;;;;;1.63;0.80;;;11.80;99.90;;;11.96;100.00;100468.09;5118139;28;20524;-78
2023/04/11 00:23:19;;;;;;;0.77;0.60;;;11.80;99.90;;;11.93;100.00;100470.59;5120022;28;20444;-79
2023/04/11 00:25:51;;;;;;;0.73;0.60;;;11.80;99.90;;;11.91;100.00;100472.31;5139029;28;20098;-79
2023/04/11 00:28:23;;;;;;;2.05;0.70;;;11.80;99.90;;;11.90;100.00;100470.53;5125908;28;20044;-79
2023/04/11 00:30:56;;;;;;;1.10;0.60;;;11.80;99.90;;;11.86;100.00;100447.78;5120306;28;20043;-78
2023/04/11 00:33:28;;;;;;;0.77;0.70;;;11.70;99.90;;;11.81;100.00;100424.22;5127900;28;20047;-80
2023/04/11 00:36:01;;;;;;;1.10;0.65;;;11.70;99.90;;;11.79;100.00;100417.13;5146711;28;20047;-79
2023/04/11 00:38:33;;;;;;;1.67;0.70;;;11.70;99.90;;;11.77;100.00;100435.38;5132143;28;20050;-79
2023/04/11 00:41:05;;;;;;;1.35;0.68;;;11.60;99.90;;;11.78;100.00;100441.47;5135359;28;20043;-79
2023/04/11 00:43:37;;;;;;;0.60;0.60;;;11.60;99.90;;;11.80;100.00;100442.38;5136723;28;20054;-80
2023/04/11 00:46:10;;;;;;;0.93;0.80;;;11.60;99.90;;;11.80;100.00;100447.63;5141166;28;20051;-81
2023/04/11 00:48:43;;;;;;;0.75;0.65;;;11.60;99.90;;;11.79;100.00;100445.84;5134621;28;20044;-80
2023/04/11 00:51:15;;;;;;;0.77;0.60;;;11.70;99.90;;;11.78;100.00;100438.88;5137958;28;20055;-80
2023/04/11 00:53:48;;;;;;;1.00;0.70;;;11.60;99.90;;;11.78;100.00;100442.38;5141675;28;20059;-79
2023/04/11 00:56:21;;;;;;;0.70;0.70;;;11.60;99.90;;;11.76;100.00;100419.69;5132252;28;20053;-79
2023/04/11 00:58:53;;;;;;;1.10;0.75;;;11.60;99.90;;;11.76;100.00;100435.34;5141023;28;20043;-80
2023/04/11 01:01:28;;;;;;;1.60;0.52;;;11.60;99.90;;;11.77;100.00;100434.50;5139043;28;20416;-79
2023/04/11 01:04:00;;;;;;;0.60;0.60;;;11.60;99.90;;;11.77;100.00;100424.06;5138645;28;20130;-79
2023/04/11 01:06:33;;;;;;;0.63;0.63;;;11.60;99.90;;;11.76;100.00;100415.34;5131576;28;20051;-79
2023/04/11 01:09:05;;;;;;;1.05;0.73;;;11.60;99.90;;;11.78;100.00;100399.69;5140114;28;20043;-80
2023/04/11 01:11:38;;;;;;;0.82;0.65;;;11.60;99.90;;;11.79;100.00;100409.28;5140128;28;20055;-80
2023/04/11 01:14:10;;;;;;;0.65;0.65;;;11.60;99.90;;;11.79;100.00;100419.75;5138965;28;20440;-80
2023/04/11 01:16:45;;;;;;;0.60;0.50;;;11.60;99.90;;;11.80;100.00;100405.84;5139036;28;20049;-80
2023/04/11 01:19:21;;;;;;;0.85;0.70;;;11.60;99.90;;;11.80;100.00;100395.38;5149130;28;20046;-79
2023/04/11 01:21:54;;;;;;;2.15;1.10;;;11.60;99.90;;;11.82;100.00;100380.69;5135934;28;20118;-80
2023/04/11 01:24:28;;;;;;;1.20;0.70;;;11.70;99.90;;;11.81;100.00;100399.81;5131029;28;20055;-79
2023/04/11 01:27:02;;;;;;;1.50;0.80;;;11.60;99.90;;;11.80;100.00;100406.75;5127126;29;20071;-80
2023/04/11 01:29:34;;;;;;;1.38;0.80;;;11.70;99.90;;;11.81;100.00;100412.88;5134194;28;20046;-80
2023/04/11 01:32:06;;;;;;;0.88;0.70;;;11.60;99.90;;;11.81;100.00;100421.59;5135414;28;20043;-80
2023/04/11 01:34:40;;;;;;;1.75;0.90;;;11.60;99.90;;;11.80;100.00;100431.94;5138550;28;20047;-80
2023/04/11 01:37:13;;;;;;;1.40;1.00;;;11.60;99.90;;;11.78;100.00;100424.09;5135857;28;20039;-79
2023/04/11 01:39:46;;;;;;;1.75;0.80;;;11.60;99.90;;;11.78;100.00;100431.03;5152611;28;20049;-80
2023/04/11 01:42:21;;;;;;;1.73;0.90;;;11.60;99.90;;;11.78;100.00;100428.44;5137450;28;20079;-78
2023/04/11 01:44:55;;;;;;;3.05;1.00;;;11.60;99.90;;;11.78;100.00;100407.53;5132651;28;20054;-79
2023/04/11 01:47:27;;;;;;;1.95;1.00;;;11.60;99.90;;;11.78;100.00;100415.38;5131963;28;20036;-80
2023/04/11 01:49:59;;;;;;;1.80;0.90;;;11.60;99.90;;;11.76;100.00;100404.00;5136545;28;20048;-80
2023/04/11 01:52:31;;;;;;;3.45;1.10;;;11.60;99.90;;;11.74;100.00;100400.50;5135242;28;20059;-80
2023/04/11 01:55:06;;;;;;;2.75;0.98;;;11.60;99.90;;;11.74;100.00;100417.03;5134306;28;20050;-79
2023/04/11 01:57:38;;;;;;;1.77;1.13;;;11.60;99.90;;;11.72;100.00;100413.50;5130192;28;20643;-79
2023/04/11 02:00:12;;;;;;;1.85;0.80;;;11.60;99.90;;;11.72;100.00;100423.94;5129883;28;20565;-79
2023/04/11 02:02:47;;;;;;;1.85;1.00;;;11.60;99.90;;;11.73;100.00;100424.81;5131855;28;20043;-79
2023/04/11 02:05:21;;;;;;;1.48;0.80;;;11.60;99.90;;;11.71;100.00;100414.34;5132860;28;20044;-79
2023/04/11 02:07:53;;;;;;;2.05;1.00;;;11.60;99.90;;;11.71;100.00;100423.91;5141689;28;20051;-79
2023/04/11 02:10:26;;;;;;;2.22;0.82;;;11.60;99.90;;;11.71;100.00;100416.06;5135720;28;20077;-79
2023/04/11 02:12:58;;;;;;;2.17;0.95;;;11.60;99.90;;;11.72;100.00;100423.06;5135406;28;20046;-80
2023/04/11 02:15:30;;;;;;;1.80;1.00;;;11.60;99.90;;;11.69;100.00;100429.97;5150729;28;20039;-80
2023/04/11 02:18:03;;;;;;;2.95;1.27;;;11.60;99.90;;;11.71;100.00;100439.56;5133510;28;20043;-80
2023/04/11 02:20:36;;;;;;;0.98;0.90;;;11.60;99.90;;;11.68;100.00;100440.41;5135685;28;20050;-80
2023/04/11 02:23:08;;;;;;;5.13;1.83;;;11.60;99.90;;;11.67;100.00;100444.72;5134094;28;20122;-80
2023/04/11 02:25:41;;;;;;;5.70;1.45;;;11.50;99.90;;;11.65;100.00;100438.56;5134494;28;20520;-79
2023/04/11 02:28:13;;;;;;;1.25;0.95;;;11.50;99.90;;;11.63;100.00;100444.59;5129525;28;20053;-79
2023/04/11 02:30:45;;;;;;;2.75;1.20;;;11.50;99.90;;;11.63;100.00;100445.50;5132935;28;20054;-79
2023/04/11 02:33:18;;;;;;;7.15;2.63;;;11.50;99.90;;;11.56;100.00;100454.00;5150132;28;20441;-79
2023/04/11 02:35:50;;;;;;;6.65;1.77;;;11.50;99.90;;;11.48;100.00;100459.91;5141426;28;20039;-79
2023/04/11 02:38:22;;;;;;;5.43;1.88;;;11.40;99.90;;;11.41;100.00;100464.06;5134514;28;20055;-79
2023/04/11 02:40:55;;;;;;;7.07;1.70;;;11.40;99.90;;;11.35;100.00;100451.75;5132518;28;20050;-79
2023/04/11 02:43:27;;;;;;;9.20;1.95;;;11.30;99.90;;;11.26;100.00;100458.44;5149101;28;20051;-79
2023/04/11 02:46:00;;;;;;;7.32;1.50;;;11.20;99.90;;;11.20;100.00;100451.31;5131263;28;20123;-79
2023/04/11 02:48:33;;;;;;;6.70;1.65;;;11.10;99.90;;;11.16;100.00;100467.75;5129630;28;20098;-79
2023/04/11 02:51:05;;;;;;;4.20;1.42;;;11.10;99.90;;;11.14;100.00;100469.41;5129592;28;20079;-78
2023/04/11 02:53:37;;;;;;;9.18;1.70;;;11.10;99.90;;;11.11;100.00;100479.78;5130908;28;20043;-79
2023/04/11 02:56:12;;;;;;;6.32;2.50;;;11.00;99.90;;;11.09;100.00;100477.13;5131663;28;20051;-79
2023/04/11 02:58:44;;;;;;;5.10;1.50;;;11.00;99.90;;;11.12;100.00;100487.63;5128802;28;20043;-79
2023/04/11 03:01:20;;;;;;;9.00;1.40;;;11.00;99.90;;;11.11;100.00;100480.66;5127397;28;20050;-79
2023/04/11 03:03:52;;;;;;;4.35;1.45;;;11.00;99.90;;;11.13;100.00;100478.97;5126477;28;20050;-79
2023/04/11 03:06:28;;;;;;;4.82;1.52;;;11.10;99.90;;;11.18;100.00;100491.25;5131903;28;20043;-80
2023/04/11 03:09:04;;;;;;;3.95;1.60;;;11.10;99.90;;;11.21;100.00;100488.72;5129441;28;20125;-79
2023/04/11 03:11:39;;;;;;;6.45;1.50;;;11.10;99.90;;;11.24;100.00;100491.44;5129349;28;20083;-79
2023/04/11 03:14:12;;;;;;;3.92;1.63;;;11.10;99.90;;;11.26;100.00;100489.75;5146366;28;20051;-80
2023/04/11 03:16:44;;;;;;;4.82;1.70;;;11.10;99.90;;;11.26;100.00;100492.34;5131342;28;20505;-79
2023/04/11 03:19:17;;;;;;;6.70;1.35;;;11.10;99.90;;;11.26;100.00;100494.97;5130743;28;20040;-79
2023/04/11 03:21:49;;;;;;;4.35;1.58;;;11.10;99.90;;;11.22;100.00;100495.72;5115777;28;20054;-79
2023/04/11 03:24:22;;;;;;;4.10;1.50;;;11.10;99.90;;;11.15;100.00;100494.69;5124083;28;20050;-79
2023/04/11 03:26:56;;;;;;;5.25;1.30;;;11.10;99.90;;;11.12;100.00;100497.19;5127572;28;20043;-79
2023/04/11 03:29:28;;;;;;;6.15;1.63;;;11.00;99.90;;;11.06;100.00;100503.13;5127251;28;20107;-80
2023/04/11 03:32:23;;;;;;;3.42;1.60;;;11.00;99.90;;;11.04;100.00;100502.19;5130626;28;20051;-79
2023/04/11 03:34:56;;;;;;;6.07;1.35;;;11.00;99.90;;;10.99;100.00;100497.69;5130903;28;20049;-79
2023/04/11 03:37:28;;;;;;;3.08;1.60;;;10.90;99.90;;;10.97;100.00;100508.09;5130349;28;20069;-79
2023/04/11 03:40:00;;;;;;;4.97;1.25;;;10.90;99.90;;;10.95;100.00;100504.53;5131482;28;20054;-78
2023/04/11 03:42:35;;;;;;;4.68;1.25;;;10.90;99.90;;;10.96;100.00;100506.31;5131269;28;20138;-79
2023/04/11 03:45:10;;;;;;;3.63;1.48;;;10.90;99.90;;;10.97;100.00;100508.09;5146791;28;20047;-80
2023/04/11 03:47:42;;;;;;;3.00;1.52;;;10.80;99.90;;;10.97;100.00;100500.25;5128701;28;20062;-79
2023/04/11 03:50:16;;;;;;;4.55;1.33;;;10.90;99.90;;;10.99;100.00;100515.94;5130996;28;20122;-79
2023/04/11 03:52:53;;;;;;;2.53;1.65;;;10.90;99.90;;;10.98;100.00;100516.78;5131078;28;20039;-79
2023/04/11 03:55:25;;;;;;;2.97;1.02;;;10.90;99.90;;;10.97;100.00;100518.53;5139061;28;20689;-79
2023/04/11 03:58:00;;;;;;;4.53;1.50;;;10.80;99.90;;;10.97;100.00;100522.84;5131204;28;20497;-79
2023/04/11 04:00:33;;;;;;;3.15;1.30;;;10.80;99.90;;;10.97;100.00;100526.34;5128988;28;20047;-79
2023/04/11 04:03:12;;;;;;;6.75;1.67;;;10.80;99.90;;;10.98;100.00;100529.84;5146818;28;20531;-79
2023/04/11 04:05:45;;;;;;;6.70;1.40;;;10.90;99.90;;;10.99;100.00;100531.59;5130200;28;20055;-80
2023/04/11 04:08:18;;;;;;;4.20;1.67;;;10.90;99.90;;;10.98;100.00;100530.72;5129173;28;20063;-79
2023/04/11 04:10:54;;;;;;;3.92;1.30;;;10.90;99.90;;;10.99;100.00;100535.09;5122555;28;20039;-79
2023/04/11 04:13:28;;;;;;;3.97;1.40;;;10.90;99.90;;;10.99;100.00;100540.31;5129290;28;20086;-80
2023/04/11 04:16:10;;;;;;;3.28;1.70;;;10.90;99.90;;;10.96;100.00;100532.41;5135331;28;20050;-79
2023/04/11 04:18:45;;;;;;;6.75;1.60;;;10.90;99.90;;;10.94;100.00;100541.00;5133076;28;20047;-79
2023/04/11 04:21:17;;;;;;;5.40;1.50;;;10.80;99.90;;;10.91;100.00;100530.50;5132544;28;20517;-79
2023/04/11 04:23:49;;;;;;;4.50;1.40;;;10.80;99.90;;;10.91;100.00;100534.00;5127102;28;20051;-79
2023/04/11 04:26:56;;;;;;;5.63;1.35;;;10.80;99.90;;;10.91;100.00;100526.16;5116641;28;20047;-79
2023/04/11 04:29:51;;;;;;;3.83;1.50;;;10.80;99.90;;;10.93;100.00;100544.47;5134320;28;20047;-79
2023/04/11 04:32:29;;;;;;;3.75;1.35;;;10.80;99.90;;;10.96;100.00;100536.75;5131046;28;20044;-79
2023/04/11 04:35:09;;;;;;;5.63;1.60;;;10.80;99.90;;;10.95;100.00;100538.44;5132878;28;20047;-78
2023/04/11 04:37:45;;;;;;;5.25;1.80;;;10.80;99.90;;;10.92;100.00;100543.56;5133030;28;20188;-79
2023/04/11 04:40:26;;;;;;;6.80;1.83;;;10.80;99.90;;;10.87;100.00;100547.75;5132828;28;20130;-79
2023/04/11 04:43:07;;;;;;;4.53;1.42;;;10.80;99.90;;;10.85;100.00;100552.94;5151885;28;20784;-80
2023/04/11 04:45:54;;;;;;;5.18;1.50;;;10.70;99.90;;;10.87;100.00;100545.16;5136346;28;20086;-79
2023/04/11 04:48:31;;;;;;;5.03;1.60;;;10.80;99.90;;;10.88;100.00;100544.31;5134006;28;20047;-79
2023/04/11 04:51:04;;;;;;;8.57;2.00;;;10.80;99.90;;;10.84;100.00;100542.47;5135550;28;20456;-80
2023/04/11 04:53:39;;;;;;;7.22;1.83;;;10.80;99.90;;;10.84;100.00;100550.28;5134740;28;20070;-79
2023/04/11 04:56:13;;;;;;;9.95;2.08;;;10.80;99.90;;;10.82;100.00;100554.56;5131593;28;20052;-80
2023/04/11 04:58:50;;;;;;;8.77;1.98;;;10.80;99.90;;;10.81;100.00;100558.00;5136289;29;20043;-79
2023/04/11 05:01:26;;;;;;;3.60;1.50;;;10.70;99.90;;;10.81;100.00;100553.66;5155349;23;20044;-81
2023/04/11 05:04:02;;;;;;;6.40;1.60;;;10.70;99.90;;;10.81;100.00;100561.50;5115909;28;20130;-83
2023/04/11 05:06:49;;;;;;;4.07;1.52;;;10.70;99.90;;;10.83;100.00;100556.34;5141211;28;20058;-82
2023/04/11 05:09:23;;;;;;;3.72;1.30;;;10.70;99.90;;;10.84;100.00;100565.94;5125897;28;20528;-82
2023/04/11 05:11:58;;;;;;;7.15;1.60;;;10.80;99.90;;;10.81;100.00;100566.72;5142057;28;20066;-82
2023/04/11 05:14:30;;;;;;;10.23;2.33;;;10.70;99.90;;;10.78;100.00;100568.34;5112166;28;20102;-82
2023/04/11 05:17:06;;;;;;;4.60;1.30;;;10.70;99.90;;;10.81;100.00;100569.31;5132561;28;20101;-81
2023/04/11 05:19:40;;;;;;;5.15;1.33;;;10.70;99.90;;;10.83;100.00;100565.06;5125096;28;20043;-82
2023/04/11 05:22:12;;;;;;;5.28;1.30;;;10.70;99.90;;;10.84;100.00;100564.22;5128562;28;20047;-82
2023/04/11 05:24:50;;;;;;;6.88;1.40;;;10.80;99.90;;;10.88;100.00;100567.78;5116944;28;20043;-81
2023/04/11 05:27:27;;;;;;;5.80;1.80;;;10.80;99.90;;;10.84;100.00;100568.53;5117110;28;20050;-82
2023/04/11 05:30:00;;;;;;;4.15;1.48;;;10.80;99.90;;;10.85;100.00;100571.19;5125312;28;20039;-81
2023/04/11 05:32:34;;;;;;;8.23;1.75;;;10.80;99.90;;;10.86;100.00;100569.47;5108136;28;20069;-81
2023/04/11 05:35:09;;;;;;;8.23;2.03;;;10.80;99.90;;;10.83;100.00;100579.81;5140697;28;20078;-83
2023/04/11 05:37:50;;;;;;;5.63;2.03;;;10.80;99.90;;;10.81;100.00;100589.28;5132654;28;20098;-81
2023/04/11 05:40:24;;;;;;;6.10;1.80;;;10.70;99.90;;;10.74;100.00;100588.22;5140503;28;20126;-81
2023/04/11 05:42:58;;;;;;;6.68;1.83;;;10.70;99.90;;;10.71;100.00;100592.47;5141913;28;20098;-81
2023/04/11 05:45:31;;;;;;;;;;;10.70;99.90;;;10.73;100.00;100591.66;5126451;28;20101;-81
2023/04/11 05:48:06;;;;;;;7.80;1.92;;;10.70;99.90;;;10.75;100.00;100595.19;5129810;28;19927;-81
2023/04/11 05:50:39;;;;;;;6.70;2.10;;;10.70;99.90;;;10.70;100.00;100593.31;5108287;28;20440;-81
2023/04/11 05:53:13;;;;;;;5.90;1.77;;;10.70;99.90;;;10.71;100.00;100597.69;5115941;28;20051;-82
2023/04/11 05:55:47;;;;;;;6.18;1.85;;;10.70;99.90;;;10.77;100.00;100600.50;5135544;28;20053;-82
2023/04/11 05:58:30;;;;;;;7.00;1.85;;;10.70;99.90;;;10.77;100.00;100609.19;5132352;28;20634;-81
2023/04/11 06:01:03;;;;;;;3.35;1.60;;;10.70;99.90;;;10.77;100.00;100603.97;5125676;28;20039;-81
2023/04/11 06:03:38;;;;;;;6.75;2.40;;;10.70;99.90;;;10.78;100.00;100615.28;5125853;28;20053;-85
2023/04/11 06:06:12;;;;;;;8.95;2.35;;;10.70;99.90;;;10.79;100.00;100622.28;5138201;28;20109;-86
2023/04/11 06:08:45;;;;;;;7.78;1.70;;;10.70;99.90;;;10.81;100.00;100625.78;5125129;28;20057;-86
2023/04/11 06:11:19;;;;;;;11.50;2.47;;;10.80;99.90;;;10.80;100.00;100624.03;5141481;28;20047;-86
2023/04/11 06:13:52;;;;;;;9.93;2.85;;;10.70;99.90;;;10.75;100.00;100631.69;5133202;28;20059;-85
2023/04/11 06:16:25;;;;;;;12.00;2.60;;;10.70;99.90;;;10.67;100.00;100637.53;5132798;28;20046;-86
2023/04/11 06:18:59;;;;;;;8.52;2.20;;;10.60;99.90;;;10.63;100.00;100625.22;5140868;28;20047;-86
2023/04/11 06:21:32;;;;;;;7.00;1.83;;;10.60;99.90;;;10.66;100.00;100634.03;5123128;28;20061;-86
2023/04/11 06:24:11;;;;;;;6.95;1.83;;;10.60;99.90;;;10.70;100.00;100632.41;5111277;28;20061;-85
2023/04/11 06:26:43;;;;;;;7.47;1.90;;;10.60;99.90;;;10.75;100.00;100636.03;5136663;28;20047;-85
2023/04/11 06:29:17;;;;;;;6.70;2.30;;;10.70;99.90;;;10.73;100.00;100633.38;5130479;28;20160;-86
2023/04/11 06:31:52;;;;;;;8.52;1.92;;;10.70;99.90;;;10.78;100.00;100641.38;5137946;28;20043;-86
2023/04/11 06:34:26;;;;;;;7.03;1.92;;;10.70;99.90;;;10.75;100.00;100646.47;5144596;28;20054;-82
2023/04/11 06:37:01;;;;;;;9.80;2.58;;;10.70;99.90;;;10.79;100.00;100653.56;5134384;28;20043;-84
2023/04/11 06:39:36;;;;;;;7.78;2.10;;;10.70;99.90;;;10.86;100.00;100648.56;5142406;28;20415;-85
2023/04/11 06:42:11;;;;;;;7.50;1.98;;;10.80;99.90;;;10.90;100.00;100657.41;5132964;28;20393;-86
2023/04/11 06:44:53;;;;;;;5.78;1.98;;;10.80;99.90;;;10.92;100.00;100660.94;5136772;28;20146;-86
2023/04/11 06:47:27;;;;;;;13.82;2.53;;;10.80;99.90;;;10.93;100.00;100659.19;5143554;28;20133;-85
2023/04/11 06:50:00;;;;;;;9.77;2.47;;;10.90;99.90;;;10.97;100.00;100669.78;5144373;28;20134;-86
2023/04/11 06:52:33;;;;;;;6.55;1.90;;;10.90;99.90;;;10.96;100.00;100667.13;5144369;28;20074;-85
2023/04/11 06:55:08;;;;;;;7.70;2.00;;;10.90;99.90;;;11.00;100.00;100666.38;5135830;28;20051;-83
2023/04/11 06:57:44;;;;;;;5.82;2.30;;;10.90;99.90;;;11.04;100.00;100669.13;5121255;28;20039;-83
2023/04/11 07:00:18;;;;;;;8.13;2.10;;;11.00;99.90;;;11.04;100.00;100670.88;5146776;28;20393;-82
2023/04/11 07:02:51;;;;;;;8.75;2.00;;;11.00;99.90;;;11.33;100.00;100674.34;5132068;28;20035;-83
2023/04/11 07:05:26;;;;;;;9.32;1.85;;;11.20;99.90;;;11.43;100.00;100672.91;5137067;28;20051;-85
2023/04/11 07:07:59;;;;;;;5.68;1.75;;;11.30;99.90;;;11.36;99.73;100690.09;5140108;28;20046;-84
2023/04/11 07:10:32;;;;;;;6.43;2.10;;;11.30;99.90;;;11.25;99.17;100679.34;5139277;28;20589;-84
2023/04/11 07:13:05;;;;;;;5.55;1.90;;;11.20;99.90;;;11.16;99.01;100691.22;5132210;28;20510;-82
2023/04/11 07:15:37;;;;;;;5.93;2.13;;;11.10;99.90;;;11.06;98.88;100690.94;5122986;28;20043;-82
2023/04/11 07:18:09;;;;;;;7.10;1.73;;;11.10;99.90;;;11.03;99.17;100684.75;5123847;28;20078;-82
2023/04/11 07:20:43;;;;;;;10.27;2.40;;;11.00;99.90;;;11.04;98.95;100696.94;5143134;28;20042;-83
2023/04/11 07:23:15;;;;;;;5.90;1.77;;;11.00;99.90;;;11.06;98.81;100695.25;5132406;28;20079;-81
2023/04/11 07:25:48;;;;;;;8.82;2.13;;;11.00;99.90;;;11.12;98.60;100696.34;5124460;28;20039;-82
2023/04/11 07:28:21;;;;;;;6.75;2.30;;;11.00;99.90;;;11.15;98.18;100700.78;5085539;28;20067;-81
2023/04/11 07:30:53;;;;;;;8.20;1.90;;;11.10;99.90;;;11.19;97.85;100702.63;5118301;28;20050;-83
2023/04/11 07:33:26;;;;;;;6.68;1.90;;;11.10;99.90;;;11.20;97.16;100699.19;5131062;28;20059;-85
2023/04/11 07:36:04;;;;;;;10.23;2.53;;;11.10;99.90;;;11.37;97.61;100702.31;5130577;28;20500;-81
2023/04/11 07:38:36;;;;;;;7.25;2.10;;;11.20;99.90;;;11.50;96.61;100709.66;5139591;28;20528;-80
2023/04/11 07:41:09;;;;;;;9.27;2.05;;;11.30;99.90;;;11.50;95.14;100714.88;5138983;28;20053;-83
2023/04/11 07:43:41;;;;;;;9.18;2.00;;;11.40;99.90;;;11.73;94.95;100712.03;5122578;28;20069;-82
2023/04/11 07:46:14;;;;;;;8.35;2.53;;;11.50;99.90;;;11.79;92.83;100720.06;5137611;28;20415;-83
2023/04/11 07:48:47;;;;;;;10.05;2.47;;;11.60;99.90;;;11.84;92.33;100724.59;5123807;28;20043;-82
2023/04/11 07:51:21;;;;;;;3.40;1.80;;;11.60;99.90;;;11.95;91.99;100719.69;5123114;28;20043;-82
2023/04/11 07:53:54;;;;;;;8.68;1.73;;;11.70;99.90;;;11.92;91.13;100716.97;5121910;28;20050;-82
2023/04/11 07:56:31;;;;;;;4.78;1.77;;;11.70;99.90;;;11.85;90.21;100729.00;5115519;28;20508;-83
2023/04/11 07:59:05;;;;;;;5.90;1.75;;;11.70;99.90;;;11.87;90.90;100723.84;5128761;28;20843;-83
2023/04/11 08:01:37;;;;;;;6.53;2.45;;;11.70;99.90;;;11.91;90.22;100729.16;5146359;28;20059;-82
2023/04/11 08:04:09;;;;;;;6.00;1.88;;;11.70;99.90;;;11.93;89.19;100732.72;5123699;28;20078;-82
2023/04/11 08:06:45;;;;;;;7.75;1.70;;;11.70;99.90;;;11.97;89.48;100731.06;5122696;28;20131;-81
2023/04/11 08:09:22;;;;;;;6.22;1.85;;;11.70;99.90;;;12.13;90.05;100735.00;5151535;28;20047;-82
2023/04/11 08:11:57;;;;;;;4.72;1.83;;;11.80;99.90;;;12.56;89.41;100736.13;5115393;28;20043;-82
2023/04/11 08:14:29;;;;;;;5.60;2.08;;;12.10;99.90;;;13.16;83.65;100731.50;5107277;28;20051;-82
2023/04/11 08:17:02;;;;;;;9.77;2.08;;;12.50;99.90;;;13.18;80.64;100753.41;5125022;28;20039;-82
2023/04/11 08:19:35;;;;;;;5.10;1.30;;;12.60;98.90;;;12.89;81.71;100749.16;5131550;28;20389;-82
2023/04/11 08:22:09;;;;;;;5.47;1.40;;;12.50;99.20;;;12.64;83.27;100745.06;5106323;28;20456;-82
2023/04/11 08:24:44;;;;;;;5.80;1.40;;;12.40;99.50;;;12.48;83.18;100754.25;5140139;28;20074;-82
2023/04/11 08:27:17;;;;;;;5.13;1.40;;;12.30;99.50;;;12.31;83.70;100759.00;5119058;28;20051;-82
2023/04/11 08:29:50;;;;;;;6.85;1.58;;;12.20;99.50;;;12.33;83.47;100759.06;5106930;28;20043;-83
2023/04/11 08:32:22;;;;;;;6.18;2.22;;;12.10;99.60;;;12.62;84.69;100752.88;5123346;28;20051;-82
2023/04/11 08:34:54;;;;;;;4.03;1.40;;;12.20;99.90;;;14.48;83.31;100753.56;5122674;28;20129;-83
2023/04/11 08:37:32;;;;;;;4.70;1.35;;;13.10;99.90;;;15.75;76.11;100750.31;5123722;28;20043;-82
2023/04/11 08:40:07;;;;;;;5.50;1.50;;;14.10;98.40;;;16.36;71.16;100764.19;5122989;28;20416;-83
2023/04/11 08:42:40;;;;;;;5.78;1.73;;;14.80;95.10;;;15.85;69.65;100761.84;5138126;28;20051;-82
2023/04/11 08:45:18;;;;;;;7.13;1.85;;;14.80;92.60;;;16.22;70.80;100763.16;5133204;28;20057;-82
2023/04/11 08:47:51;;;;;;;5.05;1.58;;;14.90;93.20;;;17.52;65.35;100762.56;5111347;28;20050;-83
2023/04/11 08:50:25;;;;;;;2.85;1.17;;;15.70;90.30;;;17.25;64.57;100763.25;5109556;28;20058;-82
2023/04/11 08:53:07;;;;;;;5.95;1.80;;;15.80;87.30;;;16.10;66.56;100774.41;5121772;28;20058;-83
2023/04/11 08:55:47;;;;;;;5.45;1.90;;;15.30;86.40;;;15.29;67.77;100780.28;5123787;28;20047;-84
2023/04/11 08:58:20;;;;;;;6.38;1.88;;;14.80;86.70;;;15.53;68.96;100777.13;5106137;28;20054;-83
2023/04/11 09:00:53;;;;;;;4.05;1.55;;;14.70;89.20;;;15.47;66.93;100775.31;5133407;28;20493;-82
2023/04/11 09:03:26;;;;;;;6.78;1.85;;;14.70;86.40;;;15.87;67.17;100781.13;5110498;28;20043;-82
2023/04/11 09:06:09;;;;;;;6.80;1.58;;;14.80;87.30;;;15.80;66.66;100788.06;5129829;28;20412;-83
2023/04/11 09:08:44;;;;;;;5.53;2.47;;;14.90;86.20;;;16.05;68.62;100776.13;5125289;28;20050;-82
2023/04/11 09:11:17;;;;;;;6.50;2.80;;;15.10;88.80;;;17.05;67.06;100771.00;5109735;28;20043;-82
2023/04/11 09:14:06;;;;;;;8.43;3.22;;;15.70;88.50;;;17.90;63.38;100764.53;5125391;28;20426;-81
2023/04/11 09:16:56;;;;;;;6.65;2.80;;;16.60;82.80;;;18.36;62.11;100781.41;5128239;28;20078;-81
2023/04/11 09:19:31;;;;;;;3.47;2.00;;;17.20;80.30;;;18.39;61.66;100776.16;5097506;28;20062;-81
2023/04/11 09:22:04;;;;;;;3.35;1.30;;;17.40;77.80;;;18.49;61.55;100770.91;5142145;28;20047;-82
2023/04/11 09:24:38;;;;;;;2.83;1.20;;;17.70;76.80;;;18.49;61.12;100784.97;5119023;28;20051;-83
2023/04/11 09:27:14;;;;;;;3.80;1.63;;;17.80;75.60;;;18.21;59.32;100772.59;5133170;28;20043;-81
2023/04/11 09:29:49;;;;;;;4.80;1.45;;;17.70;72.10;;;17.78;60.47;100762.72;5143991;28;20046;-81
2023/04/11 09:32:28;;;;;;;;;;;17.30;72.90;;;17.73;61.81;100767.09;5133188;28;20059;-80
2023/04/11 09:35:15;;;;;;;5.03;1.02;;;17.30;74.50;;;17.72;60.40;100775.00;5125926;28;20314;-82
2023/04/11 09:37:50;;;;;;;4.22;0.82;;;17.20;72.90;;;17.40;60.27;100772.13;5124503;28;20043;-84
2023/04/11 09:40:27;;;;;;;1.90;1.00;;;17.00;72.20;;;17.13;61.32;100778.97;5139888;28;20046;-86
2023/04/11 09:43:01;;;;;;;5.20;1.48;;;16.80;72.90;;;17.15;64.88;100776.34;5140885;28;20043;-87
2023/04/11 09:45:35;;;;;;;2.88;0.90;;;16.70;77.50;;;17.07;64.91;100769.25;5136457;28;20054;-85
2023/04/11 09:48:07;;;;;;;2.53;0.95;;;16.70;77.60;;;16.84;65.13;100770.84;5125129;28;20054;-84
2023/04/11 09:50:40;;;;;;;5.28;1.65;;;16.60;78.10;;;16.46;63.93;100768.69;5140173;28;20042;-83
2023/04/11 09:53:12;;;;;;;2.88;1.60;;;16.30;75.90;;;15.97;63.73;100765.50;5141701;28;20062;-84
2023/04/11 09:55:46;;;;;;;4.05;1.20;;;15.80;75.10;;;15.64;66.59;100759.78;5135830;28;20058;-84
2023/04/11 09:58:21;;;;;;;4.40;1.20;;;15.60;78.50;;;15.59;67.24;100767.59;5112985;28;20051;-84
2023/04/11 10:00:58;;;;;;;4.57;1.35;;;15.50;79.60;;;15.62;67.18;100770.28;5129542;28;20066;-84
2023/04/11 10:03:33;;;;;;;3.75;0.90;;;15.40;79.80;;;15.56;65.61;100775.41;5134665;28;20470;-87
2023/04/11 10:06:09;;;;;;;3.55;1.10;;;15.40;78.90;;;15.81;66.17;100771.41;5130990;28;20066;-83
2023/04/11 10:08:43;;;;;;;3.30;1.00;;;15.50;79.10;;;16.32;65.95;100774.66;5122444;28;20043;-84
2023/04/11 10:11:20;;;;;;;2.17;1.02;;;15.90;79.50;;;16.92;64.83;100774.41;5124123;28;20046;-84
2023/04/11 10:13:54;;;;;;;4.18;1.10;;;16.30;78.80;;;17.51;62.42;100771.34;5116323;28;20039;-84
2023/04/11 10:16:30;;;;;;;3.10;1.05;;;16.80;76.30;;;17.96;61.19;100775.13;5125054;28;20047;-83
2023/04/11 10:19:25;;;;;;;3.30;1.20;;;17.20;74.50;;;18.27;59.94;100784.03;5152494;28;20053;-85
2023/04/11 10:21:58;;;;;;;4.80;1.33;;;17.60;72.70;;;18.33;58.98;100785.81;5125106;28;20565;-85
2023/04/11 10:24:32;;;;;;;5.15;1.33;;;17.70;71.40;;;18.48;60.58;100780.56;5140215;28;20058;-85
2023/04/11 10:27:06;;;;;;;4.07;1.10;;;17.90;72.60;;;18.60;58.21;100790.28;5121920;28;20042;-83
2023/04/11 10:29:53;;;;;;;3.53;1.25;;;18.00;69.90;;;18.44;57.86;100786.72;5137466;28;20070;-85
2023/04/11 10:32:26;;;;;;;7.03;1.90;;;17.90;69.00;;;18.15;57.97;100795.44;5120304;28;20047;-85
2023/04/11 10:35:23;;;;;;;3.17;1.27;;;17.80;69.00;;;17.86;58.08;100778.59;5134493;28;20057;-84
2023/04/11 10:37:56;;;;;;;5.63;1.50;;;17.50;68.50;;;17.62;56.50;100796.00;5112708;28;20047;-80